createdAt,value
2017-12-27T00:00:02.135Z,986.18
2017-12-27T00:01:02.241Z,986.15
2017-12-27T00:02:02.247Z,986.12
2017-12-27T00:03:02.158Z,986.08
2017-12-27T00:04:02.160Z,986.10
2017-12-27T00:05:02.206Z,986.08
2017-12-27T00:06:02.226Z,986.08
2017-12-27T00:07:02.180Z,986.06
2017-12-27T00:08:02.180Z,986.05
2017-12-27T00:09:02.229Z,986.02
2017-12-27T00:10:02.223Z,985.97
2017-12-27T00:11:02.143Z,985.94
2017-12-27T00:12:02.282Z,985.89
2017-12-27T00:13:02.212Z,985.89
2017-12-27T00:14:02.213Z,985.91
2017-12-27T00:15:02.283Z,985.92
2017-12-27T00:16:02.209Z,985.88
2017-12-27T00:17:02.286Z,985.84
2017-12-27T00:18:02.222Z,985.88
2017-12-27T00:19:02.287Z,985.82
2017-12-27T00:20:02.225Z,985.80
2017-12-27T00:21:02.285Z,985.86
2017-12-27T00:22:02.221Z,985.82
2017-12-27T00:23:02.221Z,985.84
2017-12-27T00:24:02.288Z,985.83
2017-12-27T00:25:02.224Z,985.83
2017-12-27T00:26:02.292Z,985.84
2017-12-27T00:27:02.229Z,985.85
2017-12-27T00:28:02.319Z,985.80
2017-12-27T00:29:02.226Z,985.81
2017-12-27T00:30:02.297Z,985.79
2017-12-27T00:31:02.264Z,985.71
2017-12-27T00:32:02.281Z,985.75
2017-12-27T00:33:02.176Z,985.75
2017-12-27T00:34:02.199Z,985.69
2017-12-27T00:35:02.264Z,985.61
2017-12-27T00:36:02.226Z,985.58
2017-12-27T00:37:02.243Z,985.54
2017-12-27T00:38:02.185Z,985.48
2017-12-27T00:39:02.235Z,985.52
2017-12-27T00:40:02.283Z,985.51
2017-12-27T00:41:02.200Z,985.47
2017-12-27T00:42:02.297Z,985.39
2017-12-27T00:43:02.231Z,985.35
2017-12-27T00:44:02.300Z,985.29
2017-12-27T00:45:02.234Z,985.25
2017-12-27T00:46:02.301Z,985.26
2017-12-27T00:47:02.239Z,985.25
2017-12-27T00:48:02.303Z,985.24
2017-12-27T00:49:02.239Z,985.23
2017-12-27T00:50:02.238Z,985.26
2017-12-27T00:51:02.304Z,985.22
2017-12-27T00:52:02.308Z,985.21
2017-12-27T00:53:02.303Z,985.19
2017-12-27T00:54:02.238Z,985.21
2017-12-27T00:55:02.306Z,985.18
2017-12-27T00:56:02.233Z,985.12
2017-12-27T00:57:02.310Z,985.06
2017-12-27T00:58:02.235Z,985.00
2017-12-27T00:59:02.309Z,984.99
2017-12-27T01:00:02.312Z,985.00
2017-12-27T01:01:02.310Z,984.96
2017-12-27T01:02:02.240Z,984.87
2017-12-27T01:03:02.242Z,984.86
2017-12-27T01:04:02.319Z,984.85
2017-12-27T01:05:02.240Z,984.80
2017-12-27T01:06:02.268Z,984.76
2017-12-27T01:07:02.244Z,984.74
2017-12-27T01:08:02.249Z,984.69
2017-12-27T01:09:02.313Z,984.72
2017-12-27T01:10:02.247Z,984.65
2017-12-27T01:11:02.245Z,984.68
2017-12-27T01:12:02.326Z,984.63
2017-12-27T01:13:02.249Z,984.60
2017-12-27T01:14:02.345Z,984.61
2017-12-27T01:15:02.321Z,984.62
2017-12-27T01:16:02.252Z,984.57
2017-12-27T01:17:02.321Z,984.57
2017-12-27T01:18:02.257Z,984.55
2017-12-27T01:19:02.251Z,984.51
2017-12-27T01:20:02.347Z,984.50
2017-12-27T01:21:02.322Z,984.48
2017-12-27T01:22:02.090Z,984.44
2017-12-27T01:23:02.091Z,984.44
2017-12-27T01:24:02.095Z,984.47
2017-12-27T01:25:02.092Z,984.42
2017-12-27T01:26:02.096Z,984.39
2017-12-27T01:27:02.101Z,984.37
2017-12-27T01:28:02.095Z,984.36
2017-12-27T01:29:02.094Z,984.31
2017-12-27T01:30:02.099Z,984.30
2017-12-27T01:31:02.095Z,984.27
2017-12-27T01:32:02.285Z,984.28
2017-12-27T01:33:02.195Z,984.26
2017-12-27T01:34:02.288Z,984.31
2017-12-27T01:35:02.270Z,984.24
2017-12-27T01:36:02.196Z,984.23
2017-12-27T01:37:02.268Z,984.24
2017-12-27T01:38:02.208Z,984.20
2017-12-27T01:39:02.220Z,984.16
2017-12-27T01:40:02.296Z,984.17
2017-12-27T01:41:02.193Z,984.19
2017-12-27T01:42:02.233Z,984.19
2017-12-27T01:43:02.305Z,984.21
2017-12-27T01:44:02.307Z,984.20
2017-12-27T01:45:02.286Z,984.19
2017-12-27T01:46:02.271Z,984.04
2017-12-27T01:47:02.307Z,984.04
2017-12-27T01:48:02.305Z,984.03
2017-12-27T01:49:02.243Z,984.00
2017-12-27T01:50:02.330Z,983.95
2017-12-27T01:51:02.334Z,983.95
2017-12-27T01:52:02.274Z,983.91
2017-12-27T01:53:02.273Z,983.88
2017-12-27T01:54:02.342Z,983.84
2017-12-27T01:55:02.342Z,983.82
2017-12-27T01:56:02.307Z,983.83
2017-12-27T01:57:02.345Z,983.81
2017-12-27T01:58:02.282Z,983.84
2017-12-27T01:59:02.345Z,983.77
2017-12-27T02:00:02.414Z,983.76
2017-12-27T02:01:02.283Z,983.75
2017-12-27T02:02:02.357Z,983.74
2017-12-27T02:03:02.286Z,983.72
2017-12-27T02:04:02.349Z,983.64
2017-12-27T02:05:02.283Z,983.62
2017-12-27T02:06:02.350Z,983.61
2017-12-27T02:07:02.286Z,983.61
2017-12-27T02:08:02.349Z,983.58
2017-12-27T02:09:02.282Z,983.52
2017-12-27T02:10:02.353Z,983.52
2017-12-27T02:11:02.289Z,983.45
2017-12-27T02:12:02.355Z,983.42
2017-12-27T02:13:02.353Z,983.36
2017-12-27T02:14:02.289Z,983.36
2017-12-27T02:15:02.395Z,983.29
2017-12-27T02:16:02.291Z,983.32
2017-12-27T02:17:02.367Z,983.29
2017-12-27T02:18:02.296Z,983.25
2017-12-27T02:19:02.291Z,983.25
2017-12-27T02:20:02.361Z,983.26
2017-12-27T02:21:02.290Z,983.24
2017-12-27T02:22:02.310Z,983.27
2017-12-27T02:23:02.324Z,983.20
2017-12-27T02:24:02.342Z,983.19
2017-12-27T02:25:02.232Z,983.20
2017-12-27T02:26:02.348Z,983.17
2017-12-27T02:27:02.251Z,983.16
2017-12-27T02:28:02.347Z,983.11
2017-12-27T02:29:02.287Z,983.04
2017-12-27T02:30:02.296Z,982.94
2017-12-27T02:31:02.236Z,982.94
2017-12-27T02:32:02.293Z,982.93
2017-12-27T02:33:02.351Z,982.93
2017-12-27T02:34:02.317Z,982.89
2017-12-27T02:35:02.251Z,982.90
2017-12-27T02:36:02.267Z,982.87
2017-12-27T02:37:02.241Z,982.88
2017-12-27T02:38:02.261Z,982.88
2017-12-27T02:39:02.355Z,982.89
2017-12-27T02:40:02.262Z,982.88
2017-12-27T02:41:02.279Z,982.92
2017-12-27T02:42:02.354Z,982.87
2017-12-27T02:43:02.264Z,982.90
2017-12-27T02:44:02.305Z,982.88
2017-12-27T02:45:02.297Z,982.92
2017-12-27T02:46:02.301Z,982.80
2017-12-27T02:47:02.270Z,982.85
2017-12-27T02:48:02.328Z,982.84
2017-12-27T02:49:02.285Z,982.77
2017-12-27T02:50:02.264Z,982.77
2017-12-27T02:51:02.266Z,982.71
2017-12-27T02:52:02.272Z,982.64
2017-12-27T02:53:02.270Z,982.61
2017-12-27T02:54:02.312Z,982.51
2017-12-27T02:55:02.243Z,982.49
2017-12-27T02:56:02.270Z,982.42
2017-12-27T02:57:02.343Z,982.40
2017-12-27T02:58:02.339Z,982.38
2017-12-27T02:59:02.361Z,982.36
2017-12-27T03:00:02.244Z,982.33
2017-12-27T03:01:02.251Z,982.29
2017-12-27T03:02:02.375Z,982.29
2017-12-27T03:03:02.323Z,982.29
2017-12-27T03:04:02.386Z,982.26
2017-12-27T03:05:02.324Z,982.20
2017-12-27T03:06:02.319Z,982.17
2017-12-27T03:07:02.271Z,982.15
2017-12-27T03:08:02.322Z,982.12
2017-12-27T03:09:02.387Z,982.10
2017-12-27T03:10:02.321Z,982.10
2017-12-27T03:11:02.392Z,982.05
2017-12-27T03:12:02.389Z,982.06
2017-12-27T03:13:02.407Z,982.07
2017-12-27T03:14:02.393Z,982.04
2017-12-27T03:15:02.392Z,982.03
2017-12-27T03:16:02.353Z,982.02
2017-12-27T03:17:02.402Z,981.97
2017-12-27T03:18:02.396Z,981.94
2017-12-27T03:19:02.324Z,981.92
2017-12-27T03:20:02.395Z,981.89
2017-12-27T03:21:02.332Z,981.88
2017-12-27T03:22:02.394Z,981.79
2017-12-27T03:23:02.387Z,981.71
2017-12-27T03:24:02.385Z,981.70
2017-12-27T03:25:02.281Z,981.72
2017-12-27T03:26:02.306Z,981.67
2017-12-27T03:27:02.390Z,981.74
2017-12-27T03:28:02.392Z,981.75
2017-12-27T03:29:02.396Z,981.77
2017-12-27T03:30:02.285Z,981.73
2017-12-27T03:31:02.309Z,981.71
2017-12-27T03:32:02.396Z,981.63
2017-12-27T03:33:02.403Z,981.59
2017-12-27T03:34:02.341Z,981.53
2017-12-27T03:35:02.405Z,981.56
2017-12-27T03:36:02.334Z,981.50
2017-12-27T03:37:02.405Z,981.50
2017-12-27T03:38:02.336Z,981.51
2017-12-27T03:39:02.410Z,981.45
2017-12-27T03:40:02.357Z,981.43
2017-12-27T03:41:02.343Z,981.38
2017-12-27T03:42:02.345Z,981.40
2017-12-27T03:43:02.338Z,981.37
2017-12-27T03:44:02.414Z,981.37
2017-12-27T03:45:02.337Z,981.36
2017-12-27T03:46:02.411Z,981.34
2017-12-27T03:47:02.412Z,981.28
2017-12-27T03:48:02.364Z,981.34
2017-12-27T03:49:02.345Z,981.32
2017-12-27T03:50:02.412Z,981.28
2017-12-27T03:51:02.388Z,981.24
2017-12-27T03:52:02.348Z,981.25
2017-12-27T03:53:02.353Z,981.25
2017-12-27T03:54:02.415Z,981.25
2017-12-27T03:55:02.350Z,981.25
2017-12-27T03:56:02.351Z,981.25
2017-12-27T03:57:02.420Z,981.25
2017-12-27T03:58:02.348Z,981.25
2017-12-27T03:59:02.419Z,981.25
2017-12-27T04:00:02.420Z,981.25
2017-12-27T04:01:02.352Z,981.25
2017-12-27T04:02:02.423Z,981.25
2017-12-27T04:03:02.357Z,981.25
2017-12-27T04:04:02.420Z,981.25
2017-12-27T04:05:02.351Z,981.25
2017-12-27T04:06:02.421Z,981.25
2017-12-27T04:07:02.350Z,981.25
2017-12-27T04:08:02.422Z,981.25
2017-12-27T04:09:02.355Z,981.25
2017-12-27T04:10:02.438Z,981.25
2017-12-27T04:11:02.353Z,981.25
2017-12-27T04:12:02.486Z,981.25
2017-12-27T04:13:02.359Z,981.25
2017-12-27T04:14:02.432Z,981.25
2017-12-27T04:15:02.363Z,981.25
2017-12-27T04:16:02.430Z,981.25
2017-12-27T04:17:02.360Z,981.25
2017-12-27T04:18:02.430Z,981.25
2017-12-27T04:19:02.434Z,981.25
2017-12-27T04:20:02.363Z,981.25
2017-12-27T04:21:02.431Z,981.25
2017-12-27T04:22:02.369Z,981.25
2017-12-27T04:23:02.394Z,981.25
2017-12-27T04:24:02.413Z,981.25
2017-12-27T04:25:02.302Z,981.25
2017-12-27T04:26:02.304Z,981.25
2017-12-27T04:27:02.289Z,981.25
2017-12-27T04:28:02.309Z,981.25
2017-12-27T04:29:02.305Z,981.25
2017-12-27T04:30:02.361Z,981.25
2017-12-27T04:31:02.363Z,981.25
2017-12-27T04:32:02.295Z,981.25
2017-12-27T04:33:02.404Z,981.25
2017-12-27T04:34:02.363Z,981.25
2017-12-27T04:35:02.374Z,981.25
2017-12-27T04:36:02.399Z,981.25
2017-12-27T04:37:02.373Z,981.25
2017-12-27T04:38:02.391Z,981.25
2017-12-27T04:39:02.423Z,981.25
2017-12-27T04:40:02.326Z,981.25
2017-12-27T04:41:02.432Z,981.25
2017-12-27T04:42:02.426Z,981.25
2017-12-27T04:43:02.447Z,981.25
2017-12-27T04:44:02.379Z,981.25
2017-12-27T04:45:02.445Z,981.25
2017-12-27T04:46:02.378Z,981.25
2017-12-27T04:47:02.452Z,981.25
2017-12-27T04:48:02.382Z,981.25
2017-12-27T04:49:02.474Z,981.25
2017-12-27T04:50:02.381Z,981.25
2017-12-27T04:51:02.450Z,981.25
2017-12-27T04:52:02.383Z,981.25
2017-12-27T04:53:02.451Z,981.25
2017-12-27T04:54:02.385Z,981.25
2017-12-27T04:55:02.451Z,981.25
2017-12-27T04:56:02.380Z,981.25
2017-12-27T04:57:02.452Z,981.25
2017-12-27T04:58:02.452Z,981.25
2017-12-27T04:59:02.381Z,981.25
2017-12-27T05:00:02.456Z,981.25
2017-12-27T05:01:02.391Z,981.25
2017-12-27T05:02:02.454Z,981.25
2017-12-27T05:03:02.394Z,981.25
2017-12-27T05:04:02.459Z,981.25
2017-12-27T05:05:02.394Z,981.25
2017-12-27T05:06:02.463Z,981.25
2017-12-27T05:07:02.395Z,981.25
2017-12-27T05:08:02.461Z,981.25
2017-12-27T05:09:02.461Z,981.25
2017-12-27T05:10:02.397Z,981.25
2017-12-27T05:11:02.460Z,981.25
2017-12-27T05:12:02.395Z,981.25
2017-12-27T05:13:02.464Z,981.25
2017-12-27T05:14:02.464Z,981.25
2017-12-27T05:15:02.399Z,981.25
2017-12-27T05:16:02.489Z,981.25
2017-12-27T05:17:02.468Z,981.25
2017-12-27T05:18:02.400Z,981.25
2017-12-27T05:19:02.403Z,981.25
2017-12-27T05:20:02.403Z,981.25
2017-12-27T05:21:02.469Z,981.25
2017-12-27T05:22:02.405Z,981.25
2017-12-27T05:23:02.402Z,981.25
2017-12-27T05:24:02.474Z,981.25
2017-12-27T05:25:02.405Z,981.25
2017-12-27T05:26:02.469Z,981.25
2017-12-27T05:27:02.456Z,981.25
2017-12-27T05:28:02.403Z,981.25
2017-12-27T05:29:02.473Z,981.25
2017-12-27T05:30:02.404Z,981.25
2017-12-27T05:31:02.410Z,981.25
2017-12-27T05:32:02.409Z,981.25
2017-12-27T05:33:02.412Z,981.25
2017-12-27T05:34:02.416Z,981.25
2017-12-27T05:35:02.487Z,981.25
2017-12-27T05:36:02.476Z,981.25
2017-12-27T05:37:02.409Z,981.25
2017-12-27T05:38:02.479Z,981.25
2017-12-27T05:39:02.417Z,981.25
2017-12-27T05:40:02.410Z,981.25
2017-12-27T05:41:02.412Z,981.25
2017-12-27T05:42:02.414Z,981.25
2017-12-27T05:43:02.483Z,981.25
2017-12-27T05:44:02.417Z,981.25
2017-12-27T05:45:02.481Z,981.25
2017-12-27T05:46:02.482Z,981.25
2017-12-27T05:47:02.416Z,981.25
2017-12-27T05:48:02.485Z,981.25
2017-12-27T05:49:02.417Z,981.25
2017-12-27T05:50:02.486Z,981.25
2017-12-27T05:51:02.423Z,981.25
2017-12-27T05:52:02.486Z,981.25
2017-12-27T05:53:02.491Z,981.25
2017-12-27T05:54:02.420Z,981.25
2017-12-27T05:55:02.486Z,981.25
2017-12-27T05:56:02.422Z,981.25
2017-12-27T05:57:02.491Z,981.25
2017-12-27T05:58:02.425Z,981.25
2017-12-27T05:59:02.489Z,981.25
2017-12-27T06:00:02.425Z,981.25
2017-12-27T06:01:02.492Z,981.25
2017-12-27T06:02:02.424Z,981.25
2017-12-27T06:03:02.492Z,981.25
2017-12-27T06:04:02.420Z,981.25
2017-12-27T06:05:02.498Z,981.25
2017-12-27T06:06:02.494Z,981.25
2017-12-27T06:07:02.536Z,981.25
2017-12-27T06:08:02.494Z,981.25
2017-12-27T06:09:02.427Z,981.25
2017-12-27T06:10:02.705Z,981.25
2017-12-27T06:11:02.498Z,981.25
2017-12-27T06:12:02.500Z,981.25
2017-12-27T06:13:02.447Z,981.25
2017-12-27T06:14:02.458Z,981.25
2017-12-27T06:15:02.445Z,981.25
2017-12-27T06:16:02.390Z,981.25
2017-12-27T06:17:02.388Z,981.25
2017-12-27T06:18:02.367Z,981.25
2017-12-27T06:19:02.436Z,981.25
2017-12-27T06:20:02.364Z,981.25
2017-12-27T06:21:02.436Z,981.25
2017-12-27T06:22:02.457Z,981.25
2017-12-27T06:23:02.503Z,981.25
2017-12-27T06:24:02.439Z,981.25
2017-12-27T06:25:02.505Z,981.25
2017-12-27T06:26:02.435Z,981.25
2017-12-27T06:27:02.508Z,981.25
2017-12-27T06:28:02.518Z,981.25
2017-12-27T06:29:02.443Z,981.25
2017-12-27T06:30:02.509Z,978.05
2017-12-27T06:31:02.442Z,978.05
2017-12-27T06:32:02.511Z,978.05
2017-12-27T06:33:02.439Z,978.05
2017-12-27T06:34:02.412Z,978.10
2017-12-27T06:35:02.379Z,978.11
2017-12-27T06:36:02.501Z,978.04
2017-12-27T06:37:02.420Z,977.99
2017-12-27T06:38:02.412Z,978.02
2017-12-27T06:39:02.509Z,977.99
2017-12-27T06:40:02.503Z,977.97
2017-12-27T06:41:02.484Z,977.97
2017-12-27T06:42:02.486Z,977.93
2017-12-27T06:43:02.459Z,977.92
2017-12-27T06:44:02.399Z,977.90
2017-12-27T06:45:02.455Z,977.86
2017-12-27T06:46:02.552Z,977.77
2017-12-27T06:47:02.402Z,977.81
2017-12-27T06:48:02.423Z,977.72
2017-12-27T06:49:02.517Z,977.75
2017-12-27T06:50:02.431Z,977.71
2017-12-27T06:51:02.511Z,977.71
2017-12-27T06:52:02.488Z,977.67
2017-12-27T06:53:02.524Z,977.64
2017-12-27T06:54:02.458Z,977.62
2017-12-27T06:55:02.524Z,977.59
2017-12-27T06:56:02.456Z,977.60
2017-12-27T06:57:02.525Z,977.52
2017-12-27T06:58:02.458Z,977.60
2017-12-27T06:59:02.528Z,977.58
2017-12-27T07:00:02.458Z,977.48
2017-12-27T07:01:02.527Z,977.50
2017-12-27T07:02:02.464Z,977.54
2017-12-27T07:03:02.530Z,977.56
2017-12-27T07:04:02.467Z,977.55
2017-12-27T07:05:02.533Z,977.54
2017-12-27T07:06:02.465Z,977.50
2017-12-27T07:07:02.531Z,977.50
2017-12-27T07:08:02.468Z,977.53
2017-12-27T07:09:02.563Z,977.47
2017-12-27T07:10:02.533Z,977.50
2017-12-27T07:11:02.471Z,977.43
2017-12-27T07:12:02.538Z,977.48
2017-12-27T07:13:02.322Z,977.39
2017-12-27T07:14:02.351Z,977.36
2017-12-27T07:15:02.354Z,977.44
2017-12-27T07:16:02.413Z,977.51
2017-12-27T07:17:02.406Z,977.52
2017-12-27T07:18:02.428Z,977.47
2017-12-27T07:19:02.402Z,977.55
2017-12-27T07:20:02.444Z,977.52
2017-12-27T07:21:02.383Z,977.56
2017-12-27T07:22:02.444Z,977.57
2017-12-27T07:23:02.473Z,977.59
2017-12-27T07:24:02.473Z,977.59
2017-12-27T07:25:02.548Z,977.60
2017-12-27T07:26:02.476Z,977.59
2017-12-27T07:28:02.486Z,977.63
2017-12-27T07:29:02.549Z,977.62
2017-12-27T07:30:02.482Z,977.66
2017-12-27T07:31:02.546Z,977.63
2017-12-27T07:32:02.484Z,977.57
2017-12-27T07:33:02.549Z,977.57
2017-12-27T07:34:02.482Z,977.55
2017-12-27T07:35:02.548Z,977.50
2017-12-27T07:36:02.482Z,977.46
2017-12-27T07:37:02.551Z,977.49
2017-12-27T07:38:02.482Z,977.48
2017-12-27T07:39:02.511Z,977.46
2017-12-27T07:40:02.553Z,977.47
2017-12-27T07:41:02.486Z,977.44
2017-12-27T07:42:02.487Z,977.43
2017-12-27T07:43:02.554Z,977.38
2017-12-27T07:44:02.489Z,977.45
2017-12-27T07:45:02.488Z,977.39
2017-12-27T07:46:02.553Z,977.34
2017-12-27T07:47:02.493Z,977.37
2017-12-27T07:48:02.562Z,977.38
2017-12-27T07:49:02.491Z,977.36
2017-12-27T07:50:02.557Z,977.40
2017-12-27T07:51:02.488Z,977.34
2017-12-27T07:52:02.559Z,977.36
2017-12-27T07:53:02.495Z,977.39
2017-12-27T07:54:02.558Z,977.31
2017-12-27T07:55:02.493Z,977.29
2017-12-27T07:56:02.560Z,977.30
2017-12-27T07:57:02.495Z,977.26
2017-12-27T07:58:02.567Z,977.21
2017-12-27T07:59:02.496Z,977.22
2017-12-27T08:00:02.567Z,977.25
2017-12-27T08:01:02.497Z,977.24
2017-12-27T08:02:02.565Z,977.24
2017-12-27T08:03:02.536Z,977.22
2017-12-27T08:04:02.558Z,977.18
2017-12-27T08:05:02.535Z,977.19
2017-12-27T08:06:02.497Z,977.12
2017-12-27T08:07:02.452Z,977.10
2017-12-27T08:08:02.468Z,977.07
2017-12-27T08:09:02.520Z,977.03
2017-12-27T08:10:02.557Z,977.06
2017-12-27T08:11:02.537Z,977.09
2017-12-27T08:12:02.474Z,977.06
2017-12-27T08:13:02.576Z,977.07
2017-12-27T08:14:02.503Z,977.04
2017-12-27T08:15:02.579Z,977.07
2017-12-27T08:16:02.504Z,977.02
2017-12-27T08:17:02.573Z,977.05
2017-12-27T08:18:02.511Z,977.12
2017-12-27T08:19:02.576Z,977.07
2017-12-27T08:20:02.504Z,977.06
2017-12-27T08:21:02.576Z,977.06
2017-12-27T08:22:02.508Z,977.00
2017-12-27T08:23:02.542Z,977.11
2017-12-27T08:24:02.501Z,977.17
2017-12-27T08:25:02.501Z,977.14
2017-12-27T08:26:02.568Z,977.12
2017-12-27T08:27:02.543Z,977.15
2017-12-27T08:28:02.520Z,977.14
2017-12-27T08:29:02.517Z,977.13
2017-12-27T08:30:02.508Z,977.14
2017-12-27T08:31:02.467Z,977.11
2017-12-27T08:32:02.478Z,977.10
2017-12-27T08:33:02.509Z,977.08
2017-12-27T08:34:02.583Z,977.07
2017-12-27T08:35:02.510Z,977.09
2017-12-27T08:36:02.594Z,977.02
2017-12-27T08:37:02.513Z,977.08
2017-12-27T08:38:02.586Z,977.13
2017-12-27T08:39:02.588Z,977.11
2017-12-27T08:40:02.520Z,977.17
2017-12-27T08:41:02.617Z,977.16
2017-12-27T08:42:02.520Z,977.16
2017-12-27T08:43:02.583Z,977.17
2017-12-27T08:44:02.577Z,977.23
2017-12-27T08:45:02.537Z,977.18
2017-12-27T08:46:02.459Z,977.17
2017-12-27T08:47:02.491Z,977.14
2017-12-27T08:48:02.552Z,977.19
2017-12-27T08:49:02.494Z,977.18
2017-12-27T08:50:02.593Z,977.20
2017-12-27T08:51:02.558Z,977.21
2017-12-27T08:52:02.503Z,977.25
2017-12-27T08:53:02.548Z,977.20
2017-12-27T08:54:02.522Z,977.25
2017-12-27T08:55:02.529Z,977.26
2017-12-27T08:56:02.541Z,977.27
2017-12-27T08:57:02.466Z,977.28
2017-12-27T08:58:02.540Z,977.24
2017-12-27T08:59:02.543Z,977.26
2017-12-27T09:00:02.538Z,977.29
2017-12-27T09:01:02.546Z,977.22
2017-12-27T09:02:02.510Z,977.34
2017-12-27T09:03:02.535Z,977.26
2017-12-27T09:04:02.602Z,977.32
2017-12-27T09:05:02.529Z,977.27
2017-12-27T09:06:02.603Z,977.28
2017-12-27T09:07:02.531Z,977.32
2017-12-27T09:08:02.605Z,977.30
2017-12-27T09:09:02.537Z,977.27
2017-12-27T09:10:02.607Z,977.33
2017-12-27T09:11:02.536Z,977.28
2017-12-27T09:12:02.606Z,977.31
2017-12-27T09:13:02.437Z,977.30
2017-12-27T09:14:02.495Z,977.31
2017-12-27T09:15:02.564Z,977.30
2017-12-27T09:16:02.533Z,977.31
2017-12-27T09:17:02.565Z,977.29
2017-12-27T09:18:02.461Z,977.25
2017-12-27T09:19:02.478Z,977.24
2017-12-27T09:20:02.563Z,977.24
2017-12-27T09:21:02.466Z,977.23
2017-12-27T09:22:02.559Z,977.20
2017-12-27T09:23:02.496Z,977.24
2017-12-27T09:24:02.539Z,977.19
2017-12-27T09:25:02.613Z,977.15
2017-12-27T09:26:02.543Z,977.13
2017-12-27T09:27:02.614Z,977.15
2017-12-27T09:28:02.541Z,977.21
2017-12-27T09:29:02.617Z,977.15
2017-12-27T09:30:02.539Z,977.21
2017-12-27T09:31:02.617Z,977.22
2017-12-27T09:32:02.548Z,977.23
2017-12-27T09:33:02.619Z,977.23
2017-12-27T09:34:02.582Z,977.22
2017-12-27T09:35:02.497Z,977.22
2017-12-27T09:36:02.620Z,977.25
2017-12-27T09:37:02.582Z,977.19
2017-12-27T09:38:02.608Z,977.21
2017-12-27T09:39:02.610Z,977.22
2017-12-27T09:40:02.562Z,977.17
2017-12-27T09:41:02.534Z,977.17
2017-12-27T09:42:02.521Z,977.19
2017-12-27T09:43:02.545Z,977.12
2017-12-27T09:44:02.625Z,977.12
2017-12-27T09:45:02.553Z,977.10
2017-12-27T09:46:02.628Z,977.03
2017-12-27T09:47:02.566Z,977.02
2017-12-27T09:48:02.639Z,977.02
2017-12-27T09:49:02.558Z,976.99
2017-12-27T09:50:02.631Z,977.03
2017-12-27T09:51:02.562Z,977.03
2017-12-27T09:52:02.631Z,976.99
2017-12-27T09:53:02.561Z,976.93
2017-12-27T09:54:02.643Z,976.95
2017-12-27T09:55:02.568Z,976.93
2017-12-27T09:56:02.634Z,976.85
2017-12-27T09:57:02.562Z,976.90
2017-12-27T09:58:02.633Z,976.85
2017-12-27T09:59:02.561Z,976.90
2017-12-27T10:00:02.641Z,976.87
2017-12-27T10:01:02.566Z,976.85
2017-12-27T10:02:02.638Z,976.82
2017-12-27T10:03:02.640Z,976.76
2017-12-27T10:04:02.570Z,976.74
2017-12-27T10:05:02.639Z,976.72
2017-12-27T10:06:02.565Z,976.72
2017-12-27T10:07:02.640Z,976.65
2017-12-27T10:08:02.571Z,976.62
2017-12-27T10:09:02.642Z,976.59
2017-12-27T10:10:02.564Z,976.62
2017-12-27T10:11:02.641Z,976.58
2017-12-27T10:12:02.574Z,976.55
2017-12-27T10:13:02.644Z,976.62
2017-12-27T10:14:02.495Z,976.54
2017-12-27T10:15:02.653Z,976.54
2017-12-27T10:16:02.591Z,976.55
2017-12-27T10:17:02.585Z,976.49
2017-12-27T10:18:02.594Z,976.52
2017-12-27T10:19:02.497Z,976.46
2017-12-27T10:20:02.497Z,976.43
2017-12-27T10:21:02.536Z,976.42
2017-12-27T10:22:02.593Z,976.43
2017-12-27T10:23:02.594Z,976.40
2017-12-27T10:24:02.580Z,976.37
2017-12-27T10:25:02.652Z,976.34
2017-12-27T10:26:02.579Z,976.36
2017-12-27T10:27:02.586Z,976.32
2017-12-27T10:28:02.740Z,976.29
2017-12-27T10:29:02.653Z,976.30
2017-12-27T10:30:02.580Z,976.28
2017-12-27T10:31:02.655Z,976.29
2017-12-27T10:32:02.626Z,976.26
2017-12-27T10:33:02.653Z,976.25
2017-12-27T10:34:02.605Z,976.21
2017-12-27T10:35:02.538Z,976.21
2017-12-27T10:36:02.533Z,976.16
2017-12-27T10:37:02.584Z,976.11
2017-12-27T10:38:02.565Z,976.12
2017-12-27T10:39:02.647Z,976.06
2017-12-27T10:40:02.645Z,976.11
2017-12-27T10:41:02.607Z,976.07
2017-12-27T10:42:02.658Z,976.04
2017-12-27T10:43:02.635Z,976.01
2017-12-27T10:44:02.615Z,975.97
2017-12-27T10:45:02.520Z,975.95
2017-12-27T10:46:02.568Z,975.94
2017-12-27T10:47:02.556Z,975.91
2017-12-27T10:48:02.612Z,975.95
2017-12-27T10:49:02.570Z,975.92
2017-12-27T10:50:02.644Z,975.95
2017-12-27T10:51:02.571Z,975.90
2017-12-27T10:52:02.613Z,975.92
2017-12-27T10:53:02.523Z,975.90
2017-12-27T10:54:02.549Z,975.87
2017-12-27T10:55:02.539Z,975.86
2017-12-27T10:56:02.574Z,975.85
2017-12-27T10:57:02.537Z,975.88
2017-12-27T10:58:02.551Z,975.91
2017-12-27T10:59:02.540Z,975.86
2017-12-27T11:00:02.527Z,975.85
2017-12-27T11:01:02.634Z,975.89
2017-12-27T11:02:02.598Z,975.87
2017-12-27T11:03:02.580Z,975.81
2017-12-27T11:04:02.619Z,975.77
2017-12-27T11:05:02.567Z,975.78
2017-12-27T11:06:02.612Z,975.77
2017-12-27T11:07:02.635Z,975.74
2017-12-27T11:08:02.581Z,975.78
2017-12-27T11:09:02.579Z,975.73
2017-12-27T11:10:02.644Z,975.71
2017-12-27T11:11:02.577Z,975.73
2017-12-27T11:12:02.599Z,975.70
2017-12-27T11:13:02.644Z,975.69
2017-12-27T11:14:02.641Z,975.69
2017-12-27T11:15:02.619Z,975.64
2017-12-27T11:16:02.584Z,975.64
2017-12-27T11:17:02.568Z,975.59
2017-12-27T11:18:02.640Z,975.60
2017-12-27T11:19:02.607Z,975.54
2017-12-27T11:20:02.625Z,975.52
2017-12-27T11:21:02.592Z,975.51
2017-12-27T11:22:02.565Z,975.52
2017-12-27T11:23:02.563Z,975.55
2017-12-27T11:24:02.771Z,975.51
2017-12-27T11:25:02.686Z,975.52
2017-12-27T11:26:02.688Z,975.48
2017-12-27T11:27:02.620Z,975.48
2017-12-27T11:28:02.687Z,975.43
2017-12-27T11:29:02.614Z,975.47
2017-12-27T11:30:02.688Z,975.45
2017-12-27T11:31:02.623Z,975.45
2017-12-27T11:32:02.700Z,975.45
2017-12-27T11:33:02.620Z,975.47
2017-12-27T11:34:02.693Z,975.41
2017-12-27T11:35:02.620Z,975.40
2017-12-27T11:36:02.693Z,975.41
2017-12-27T11:37:02.642Z,975.41
2017-12-27T11:38:02.695Z,975.33
2017-12-27T11:39:02.628Z,975.35
2017-12-27T11:40:02.705Z,975.36
2017-12-27T11:41:02.623Z,975.34
2017-12-27T11:42:02.773Z,975.28
2017-12-27T11:43:02.697Z,975.26
2017-12-27T11:44:02.630Z,975.24
2017-12-27T11:45:02.697Z,975.20
2017-12-27T11:47:02.700Z,975.21
2017-12-27T11:48:02.635Z,975.20
2017-12-27T11:49:02.702Z,975.19
2017-12-27T11:50:02.635Z,975.18
2017-12-27T11:51:02.709Z,975.16
2017-12-27T11:52:02.636Z,975.16
2017-12-27T11:53:02.706Z,975.13
2017-12-27T11:54:02.636Z,975.08
2017-12-27T11:55:02.711Z,975.08
2017-12-27T11:56:02.635Z,975.06
2017-12-27T11:57:02.709Z,974.97
2017-12-27T11:58:02.639Z,975.00
2017-12-27T11:59:02.706Z,974.95
2017-12-27T12:00:02.638Z,974.92
2017-12-27T12:01:02.708Z,974.87
2017-12-27T12:02:02.640Z,974.79
2017-12-27T12:03:02.714Z,974.81
2017-12-27T12:04:02.641Z,974.83
2017-12-27T12:05:02.713Z,974.82
2017-12-27T12:06:02.635Z,974.76
2017-12-27T12:07:02.711Z,974.65
2017-12-27T12:08:02.639Z,974.63
2017-12-27T12:09:02.713Z,974.60
2017-12-27T12:10:02.664Z,974.54
2017-12-27T12:11:02.712Z,974.64
2017-12-27T12:12:02.645Z,974.63
2017-12-27T12:13:02.712Z,974.57
2017-12-27T12:14:02.648Z,974.54
2017-12-27T12:15:02.716Z,974.54
2017-12-27T12:16:02.648Z,974.54
2017-12-27T12:17:02.719Z,974.51
2017-12-27T12:18:02.654Z,974.50
2017-12-27T12:19:02.719Z,974.51
2017-12-27T12:20:02.650Z,974.54
2017-12-27T12:21:02.722Z,974.50
2017-12-27T12:22:02.653Z,974.49
2017-12-27T12:23:02.725Z,974.51
2017-12-27T12:24:02.715Z,974.43
2017-12-27T12:25:02.687Z,974.45
2017-12-27T12:26:02.607Z,974.45
2017-12-27T12:27:02.670Z,974.44
2017-12-27T12:28:02.627Z,974.43
2017-12-27T12:29:02.724Z,974.43
2017-12-27T12:30:02.723Z,974.40